Time;durP1;ratioP1;P1;durP2;ratioP2;P2;SDS_P1;SDS_P2;PMS_P1;PMS_P2;Temp;Humidity;BMP_temperature;BMP_pressure;BME280_temperature;BME280_humidity;BME280_pressure;Samples;Min_cycle;Max_cycle;Signal;HPM_P1;HPM_P2
2023/12/14 00:00:10;;;;;;;;;;;19.40;57.60;;;;;;5034923;28;20296;-65
2023/12/14 00:02:35;;;;;;;;;;;19.40;57.60;;;;;;5036199;28;19932;-65
2023/12/14 00:05:01;;;;;;;;;;;19.40;57.60;;;;;;5069213;28;19924;-64
2023/12/14 00:07:26;;;;;;;;;;;19.40;57.60;;;;;;5038174;28;20400;-64
2023/12/14 00:09:52;;;;;;;;;;;19.40;57.50;;;;;;5053050;28;19979;-65
2023/12/14 00:12:17;;;;;;;;;;;19.30;57.50;;;;;;5035881;28;20016;-64
2023/12/14 00:14:43;;;;;;;;;;;19.30;57.50;;;;;;5035152;28;19927;-64
2023/12/14 00:17:08;;;;;;;;;;;19.30;57.50;;;;;;5035435;28;20304;-65
2023/12/14 00:19:34;;;;;;;;;;;19.30;57.40;;;;;;5035671;28;20019;-65
2023/12/14 00:21:59;;;;;;;;;;;19.30;57.50;;;;;;5034577;28;20434;-65
2023/12/14 00:24:25;;;;;;;;;;;19.30;57.50;;;;;;5035422;28;20019;-64
2023/12/14 00:26:50;;;;;;;;;;;19.30;57.40;;;;;;5042601;28;19932;-65
2023/12/14 00:29:16;;;;;;;;;;;19.30;57.50;;;;;;5054272;28;19924;-65
2023/12/14 00:31:41;;;;;;;;;;;19.30;57.50;;;;;;5055334;28;20027;-65
2023/12/14 00:34:07;;;;;;;;;;;19.30;57.40;;;;;;5054900;28;19978;-65
2023/12/14 00:36:32;;;;;;;;;;;19.20;57.40;;;;;;5072273;28;19925;-65
2023/12/14 00:38:58;;;;;;;;;;;19.30;57.40;;;;;;5072969;28;19924;-64
2023/12/14 00:41:23;;;;;;;;;;;19.20;58.10;;;;;;5073302;28;20414;-65
2023/12/14 00:43:49;;;;;;;;;;;19.20;57.40;;;;;;5072731;28;19935;-65
2023/12/14 00:46:14;;;;;;;;;;;19.20;57.40;;;;;;5054153;28;19944;-65
2023/12/14 00:48:40;;;;;;;;;;;19.20;57.40;;;;;;5055432;28;19924;-65
2023/12/14 00:51:05;;;;;;;;;;;19.20;57.40;;;;;;5039581;28;20380;-65
2023/12/14 00:53:31;;;;;;;;;;;19.20;57.30;;;;;;5054064;28;19973;-64
2023/12/14 00:55:56;;;;;;;;;;;19.20;57.40;;;;;;5072954;28;19924;-65
2023/12/14 00:58:22;;;;;;;;;;;19.20;57.30;;;;;;5072310;28;19974;-65
2023/12/14 01:00:47;;;;;;;;;;;19.10;57.30;;;;;;5054504;28;19925;-65
2023/12/14 01:03:13;;;;;;;;;;;19.10;57.20;;;;;;5072586;28;19931;-65
2023/12/14 01:05:38;;;;;;;;;;;19.20;57.40;;;;;;5072016;28;19924;-64
2023/12/14 01:08:04;;;;;;;;;;;19.10;57.30;;;;;;5054862;28;20020;-64
2023/12/14 01:10:29;;;;;;;;;;;19.10;57.30;;;;;;5054728;28;20375;-65
2023/12/14 01:12:55;;;;;;;;;;;19.10;57.30;;;;;;5054938;28;20015;-65
2023/12/14 01:15:20;;;;;;;;;;;19.10;57.30;;;;;;5073120;28;20331;-65
2023/12/14 01:17:46;;;;;;;;;;;19.10;57.30;;;;;;5071671;28;19967;-64
2023/12/14 01:20:11;;;;;;;;;;;19.10;57.30;;;;;;5053632;28;20441;-65
2023/12/14 01:22:37;;;;;;;;;;;19.10;57.30;;;;;;5052738;28;19933;-65
2023/12/14 01:25:03;;;;;;;;;;;19.10;57.30;;;;;;5033530;28;19920;-65
2023/12/14 01:27:28;;;;;;;;;;;19.00;57.20;;;;;;5048060;28;20024;-65
2023/12/14 01:29:54;;;;;;;;;;;19.00;57.20;;;;;;5051091;28;19924;-65
2023/12/14 01:32:19;;;;;;;;;;;19.00;57.20;;;;;;5051454;28;20364;-65
2023/12/14 01:34:45;;;;;;;;;;;19.10;57.30;;;;;;5051374;28;19970;-65
2023/12/14 01:37:10;;;;;;;;;;;19.10;57.20;;;;;;5051429;28;19978;-64
2023/12/14 01:39:36;;;;;;;;;;;19.10;57.20;;;;;;5051738;28;19925;-64
2023/12/14 01:42:01;;;;;;;;;;;19.00;57.30;;;;;;5051022;28;20396;-64
2023/12/14 01:44:26;;;;;;;;;;;19.00;57.30;;;;;;5051688;28;19921;-64
2023/12/14 01:46:52;;;;;;;;;;;19.00;57.30;;;;;;5050658;28;20364;-64
2023/12/14 01:49:17;;;;;;;;;;;19.00;57.30;;;;;;5050994;28;20007;-64
2023/12/14 01:51:43;;;;;;;;;;;19.00;57.30;;;;;;5050839;28;20295;-64
2023/12/14 01:54:08;;;;;;;;;;;19.00;57.30;;;;;;5051394;28;19979;-64
2023/12/14 01:56:34;;;;;;;;;;;19.00;57.30;;;;;;5051194;28;20357;-64
2023/12/14 01:58:59;;;;;;;;;;;19.00;57.30;;;;;;5052061;28;19932;-64
2023/12/14 02:01:40;;;;;;;;;;;19.00;57.30;;;;;;5051666;28;19991;-63
2023/12/14 02:04:09;;;;;;;;;;;19.00;57.30;;;;;;5052381;28;20384;-64
2023/12/14 02:06:35;;;;;;;;;;;19.00;57.30;;;;;;5054852;28;20392;-63
2023/12/14 02:09:00;;;;;;;;;;;19.00;57.30;;;;;;5055569;28;19947;-63
2023/12/14 02:11:26;;;;;;;;;;;18.90;57.30;;;;;;5056018;28;19928;-64
2023/12/14 02:13:51;;;;;;;;;;;18.90;57.30;;;;;;5054205;28;20066;-63
2023/12/14 02:16:16;;;;;;;;;;;18.90;57.30;;;;;;5054735;28;19925;-64
2023/12/14 02:18:42;;;;;;;;;;;18.90;57.30;;;;;;5054412;28;19972;-64
2023/12/14 02:21:07;;;;;;;;;;;18.90;57.30;;;;;;5053795;28;19994;-64
2023/12/14 02:23:34;;;;;;;;;;;18.90;57.30;;;;;;5055208;28;20559;-63
2023/12/14 02:25:59;;;;;;;;;;;18.90;57.30;;;;;;5054221;28;19990;-64
2023/12/14 02:28:25;;;;;;;;;;;18.90;57.30;;;;;;5053766;28;19928;-64
2023/12/14 02:30:50;;;;;;;;;;;18.90;57.30;;;;;;5055654;28;20498;-64
2023/12/14 02:33:16;;;;;;;;;;;18.90;57.30;;;;;;5053879;28;19950;-64
2023/12/14 02:35:42;;;;;;;;;;;18.90;57.30;;;;;;5054860;28;19983;-64
2023/12/14 02:38:07;;;;;;;;;;;18.90;57.30;;;;;;5054776;28;19964;-63
2023/12/14 02:40:33;;;;;;;;;;;18.90;57.30;;;;;;5055444;28;19967;-64
2023/12/14 02:42:58;;;;;;;;;;;18.90;57.30;;;;;;5043318;28;19925;-63
2023/12/14 02:45:24;;;;;;;;;;;18.90;57.30;;;;;;5033965;28;19972;-63
2023/12/14 02:47:51;;;;;;;;;;;18.90;57.30;;;;;;5033824;28;19925;-64
2023/12/14 02:50:17;;;;;;;;;;;18.90;57.30;;;;;;5037532;28;20365;-63
2023/12/14 02:52:42;;;;;;;;;;;18.90;57.20;;;;;;5054209;28;19920;-63
2023/12/14 02:55:08;;;;;;;;;;;18.90;57.20;;;;;;5053667;28;19924;-64
2023/12/14 02:57:33;;;;;;;;;;;18.90;57.20;;;;;;5054466;28;19932;-63
2023/12/14 02:59:59;;;;;;;;;;;18.90;57.20;;;;;;5053435;28;20407;-63
2023/12/14 03:02:24;;;;;;;;;;;18.90;57.20;;;;;;5035008;28;19925;-64
2023/12/14 03:04:50;;;;;;;;;;;18.90;57.20;;;;;;5033998;28;19971;-63
2023/12/14 03:07:15;;;;;;;;;;;19.00;57.30;;;;;;5034659;28;19925;-64
2023/12/14 03:09:44;;;;;;;;;;;18.90;57.20;;;;;;5034721;28;19925;-64
2023/12/14 03:12:10;;;;;;;;;;;18.90;57.20;;;;;;5033912;28;19925;-63
2023/12/14 03:14:35;;;;;;;;;;;18.90;57.20;;;;;;5033321;28;20019;-64
2023/12/14 03:17:02;;;;;;;;;;;18.90;57.20;;;;;;5030603;28;19932;-63
2023/12/14 03:19:27;;;;;;;;;;;19.00;57.20;;;;;;5034767;28;20434;-63
2023/12/14 03:21:53;;;;;;;;;;;19.00;57.20;;;;;;5034228;28;19929;-63
2023/12/14 03:24:19;;;;;;;;;;;19.00;57.20;;;;;;5033214;28;19928;-64
2023/12/14 03:26:44;;;;;;;;;;;19.00;57.80;;;;;;5032687;28;20392;-64
2023/12/14 03:29:10;;;;;;;;;;;19.00;57.20;;;;;;5033063;28;19929;-64
2023/12/14 03:31:35;;;;;;;;;;;19.00;57.10;;;;;;5032224;28;19936;-64
2023/12/14 03:34:01;;;;;;;;;;;19.00;57.10;;;;;;5032755;28;19927;-64
2023/12/14 03:36:27;;;;;;;;;;;19.00;57.20;;;;;;5033488;28;19933;-64
2023/12/14 03:38:53;;;;;;;;;;;19.00;57.10;;;;;;5033088;28;19932;-63
2023/12/14 03:41:18;;;;;;;;;;;19.00;57.80;;;;;;5033802;28;19925;-63
2023/12/14 03:43:44;;;;;;;;;;;19.00;57.10;;;;;;5034272;28;19932;-64
2023/12/14 03:46:09;;;;;;;;;;;19.00;57.10;;;;;;5033142;28;20007;-64
2023/12/14 03:48:35;;;;;;;;;;;19.00;57.10;;;;;;5039654;28;19925;-64
2023/12/14 03:51:04;;;;;;;;;;;19.00;57.10;;;;;;5053875;28;20435;-63
2023/12/14 03:53:30;;;;;;;;;;;19.00;57.10;;;;;;5051815;28;20411;-63
2023/12/14 03:55:55;;;;;;;;;;;19.00;57.10;;;;;;5053675;28;20004;-64
2023/12/14 03:58:21;;;;;;;;;;;19.00;57.20;;;;;;5054032;28;19925;-64
2023/12/14 04:00:46;;;;;;;;;;;19.00;57.10;;;;;;5052987;28;19931;-63
2023/12/14 04:03:12;;;;;;;;;;;19.00;57.10;;;;;;5052693;28;19947;-64
2023/12/14 04:05:38;;;;;;;;;;;19.00;57.20;;;;;;5054004;28;19924;-64
2023/12/14 04:08:04;;;;;;;;;;;19.10;57.20;;;;;;5052928;28;20011;-63
2023/12/14 04:10:30;;;;;;;;;;;19.00;57.10;;;;;;5053335;28;19979;-63
2023/12/14 04:12:55;;;;;;;;;;;19.10;57.10;;;;;;5051494;28;19925;-64
2023/12/14 04:15:21;;;;;;;;;;;19.10;57.10;;;;;;5051695;28;20002;-64
2023/12/14 04:17:46;;;;;;;;;;;19.10;57.10;;;;;;5052590;28;19925;-64
2023/12/14 04:20:12;;;;;;;;;;;19.10;57.10;;;;;;5051279;28;19929;-64
2023/12/14 04:22:38;;;;;;;;;;;19.10;57.00;;;;;;5052565;28;19929;-64
2023/12/14 04:25:03;;;;;;;;;;;19.20;57.00;;;;;;5052102;28;20426;-64
2023/12/14 04:27:29;;;;;;;;;;;19.10;56.90;;;;;;5051078;28;19968;-64
2023/12/14 04:29:55;;;;;;;;;;;19.20;57.00;;;;;;5052006;28;19928;-64
2023/12/14 04:32:21;;;;;;;;;;;19.20;57.00;;;;;;5053590;28;20374;-64
2023/12/14 04:34:47;;;;;;;;;;;19.20;57.00;;;;;;5051786;28;19924;-64
2023/12/14 04:37:12;;;;;;;;;;;19.20;57.00;;;;;;5053083;28;19978;-64
2023/12/14 04:39:37;;;;;;;;;;;19.20;56.90;;;;;;5053086;28;19925;-64
2023/12/14 04:42:03;;;;;;;;;;;19.20;56.90;;;;;;5052021;28;19925;-64
2023/12/14 04:44:28;;;;;;;;;;;19.30;56.90;;;;;;5053034;28;19924;-63
2023/12/14 04:46:54;;;;;;;;;;;19.30;56.90;;;;;;5051926;28;19985;-64
2023/12/14 04:49:19;;;;;;;;;;;19.30;56.90;;;;;;5052369;28;19929;-63
2023/12/14 04:51:45;;;;;;;;;;;19.30;56.90;;;;;;5039272;28;20075;-64
2023/12/14 04:54:10;;;;;;;;;;;19.30;56.90;;;;;;5031514;28;20372;-64
2023/12/14 04:56:36;;;;;;;;;;;19.30;56.80;;;;;;5032659;28;19932;-64
2023/12/14 04:59:02;;;;;;;;;;;19.30;56.80;;;;;;5031370;28;19925;-64
2023/12/14 05:01:27;;;;;;;;;;;19.40;56.90;;;;;;5033300;28;19926;-63
2023/12/14 05:03:53;;;;;;;;;;;19.40;56.80;;;;;;5031836;28;19925;-64
2023/12/14 05:06:19;;;;;;;;;;;19.40;56.80;;;;;;5031110;28;20290;-63
2023/12/14 05:08:44;;;;;;;;;;;19.40;56.80;;;;;;5032458;28;19925;-63
2023/12/14 05:11:10;;;;;;;;;;;19.50;56.80;;;;;;5034821;28;19929;-64
2023/12/14 05:13:35;;;;;;;;;;;19.50;56.80;;;;;;5053116;28;20024;-63
2023/12/14 05:16:01;;;;;;;;;;;19.50;56.80;;;;;;5051411;28;19929;-63
2023/12/14 05:18:26;;;;;;;;;;;19.50;56.70;;;;;;5050480;28;19925;-64
2023/12/14 05:20:52;;;;;;;;;;;19.50;56.80;;;;;;5052592;28;19932;-64
2023/12/14 05:23:18;;;;;;;;;;;19.50;56.70;;;;;;5051776;28;19924;-63
2023/12/14 05:25:43;;;;;;;;;;;19.50;56.60;;;;;;5054642;28;20371;-64
2023/12/14 05:28:09;;;;;;;;;;;19.50;56.60;;;;;;5054795;28;19971;-64
2023/12/14 05:30:34;;;;;;;;;;;19.50;56.60;;;;;;5072185;28;20482;-64
2023/12/14 05:33:01;;;;;;;;;;;19.50;56.60;;;;;;5054822;28;19935;-64
2023/12/14 05:35:28;;;;;;;;;;;19.50;56.60;;;;;;5054108;28;20417;-63
2023/12/14 05:37:53;;;;;;;;;;;19.60;56.60;;;;;;5071821;28;20001;-64
2023/12/14 05:40:19;;;;;;;;;;;19.60;56.60;;;;;;5076327;28;19924;-63
2023/12/14 05:42:44;;;;;;;;;;;19.60;56.60;;;;;;5076366;28;20018;-64
2023/12/14 05:45:10;;;;;;;;;;;19.60;56.50;;;;;;5057758;28;20368;-64
2023/12/14 05:47:35;;;;;;;;;;;19.60;56.50;;;;;;5076735;28;20376;-64
2023/12/14 05:50:01;;;;;;;;;;;19.60;56.50;;;;;;5058415;28;20369;-63
2023/12/14 05:52:26;;;;;;;;;;;19.60;56.50;;;;;;5074869;28;19927;-64
2023/12/14 05:54:52;;;;;;;;;;;19.60;56.40;;;;;;5075831;28;19964;-64
2023/12/14 05:57:17;;;;;;;;;;;19.70;56.50;;;;;;5076324;28;19924;-64
2023/12/14 05:59:43;;;;;;;;;;;19.60;56.40;;;;;;5057567;28;20276;-63
2023/12/14 06:02:08;;;;;;;;;;;19.70;56.50;;;;;;5076156;28;20011;-64
2023/12/14 06:04:34;;;;;;;;;;;19.70;56.50;;;;;;5058122;28;20426;-64
2023/12/14 06:06:59;;;;;;;;;;;19.70;56.40;;;;;;5075262;28;19929;-64
2023/12/14 06:09:33;;;;;;;;;;;19.70;56.40;;;;;;5076152;28;19931;-64
2023/12/14 06:11:59;;;;;;;;;;;19.70;56.40;;;;;;5075553;28;20384;-64
2023/12/14 06:14:25;;;;;;;;;;;19.70;56.40;;;;;;5075142;28;19925;-64
2023/12/14 06:16:50;;;;;;;;;;;19.70;56.40;;;;;;5058061;28;19931;-64
2023/12/14 06:19:16;;;;;;;;;;;19.70;56.40;;;;;;5075160;28;20051;-63
2023/12/14 06:21:41;;;;;;;;;;;19.70;56.40;;;;;;5075114;28;19924;-64
2023/12/14 06:24:07;;;;;;;;;;;19.70;56.40;;;;;;5075245;28;19920;-64
2023/12/14 06:26:32;;;;;;;;;;;19.70;56.40;;;;;;5075519;28;20050;-62
2023/12/14 06:28:57;;;;;;;;;;;19.80;56.40;;;;;;5072152;28;19959;-62
2023/12/14 06:31:23;;;;;;;;;;;19.70;57.10;;;;;;5072688;28;19929;-62
2023/12/14 06:33:49;;;;;;;;;;;19.80;56.40;;;;;;5074834;28;19930;-62
2023/12/14 06:36:16;;;;;;;;;;;19.80;56.40;;;;;;5057148;28;19924;-62
2023/12/14 06:38:42;;;;;;;;;;;19.80;56.50;;;;;;5075165;28;19924;-62
2023/12/14 06:41:08;;;;;;;;;;;19.70;56.40;;;;;;5074288;28;19935;-62
2023/12/14 06:43:34;;;;;;;;;;;19.80;56.40;;;;;;5057411;28;20319;-62
2023/12/14 06:45:59;;;;;;;;;;;19.80;56.40;;;;;;5075170;28;19931;-62
2023/12/14 06:48:25;;;;;;;;;;;19.80;56.40;;;;;;5070797;28;19932;-62
2023/12/14 06:50:50;;;;;;;;;;;19.70;56.40;;;;;;5053978;28;19929;-62
2023/12/14 06:53:16;;;;;;;;;;;19.80;56.50;;;;;;5037212;28;19932;-62
2023/12/14 06:55:41;;;;;;;;;;;19.80;56.50;;;;;;5036149;28;19928;-62
2023/12/14 06:58:11;;;;;;;;;;;19.80;56.50;;;;;;5037031;28;19932;-62
2023/12/14 07:00:37;;;;;;;;;;;19.80;56.50;;;;;;5037045;28;19925;-62
2023/12/14 07:03:03;;;;;;;;;;;19.80;56.60;;;;;;5053997;28;19936;-62
2023/12/14 07:05:28;;;;;;;;;;;19.80;56.60;;;;;;5037187;28;19967;-62
2023/12/14 07:07:54;;;;;;;;;;;19.80;56.60;;;;;;5054540;28;20010;-62
2023/12/14 07:10:19;;;;;;;;;;;19.80;56.60;;;;;;5054232;28;20386;-61
2023/12/14 07:12:46;;;;;;;;;;;19.80;56.60;;;;;;5055023;28;20446;-62
2023/12/14 07:15:12;;;;;;;;;;;19.80;56.60;;;;;;5054497;28;19952;-62
2023/12/14 07:17:37;;;;;;;;;;;19.80;56.70;;;;;;5051909;28;20365;-61
2023/12/14 07:20:03;;;;;;;;;;;19.80;56.70;;;;;;5053099;28;19933;-62
2023/12/14 07:22:28;;;;;;;;;;;19.80;56.80;;;;;;5063385;28;19924;-62
2023/12/14 07:24:54;;;;;;;;;;;19.80;56.90;;;;;;5062041;28;19924;-63
2023/12/14 07:27:19;;;;;;;;;;;19.90;57.00;;;;;;5055338;28;19925;-62
2023/12/14 07:29:45;;;;;;;;;;;19.90;57.20;;;;;;5054574;28;20403;-60
2023/12/14 07:32:10;;;;;;;;;;;19.90;57.20;;;;;;5035643;28;19955;-61
2023/12/14 07:34:35;;;;;;;;;;;19.90;57.30;;;;;;5054352;28;19921;-61
2023/12/14 07:37:01;;;;;;;;;;;19.90;57.30;;;;;;5036437;28;19931;-60
2023/12/14 07:39:26;;;;;;;;;;;19.90;57.40;;;;;;5053503;28;19929;-61
2023/12/14 07:41:52;;;;;;;;;;;19.90;57.40;;;;;;5036149;28;20290;-60
2023/12/14 07:44:17;;;;;;;;;;;19.90;57.50;;;;;;5053810;28;19925;-60
2023/12/14 07:46:43;;;;;;;;;;;19.90;57.50;;;;;;5054666;28;20058;-60
2023/12/14 07:49:08;;;;;;;;;;;19.90;57.50;;;;;;5074039;28;19924;-60
2023/12/14 07:51:34;;;;;;;;;;;19.90;57.60;;;;;;5044408;28;19929;-61
2023/12/14 07:53:59;;;;;;;;;;;19.90;57.60;;;;;;5043094;28;20040;-62
2023/12/14 07:56:27;;;;;;;;;;;19.90;57.60;;;;;;5046580;28;19932;-62
2023/12/14 07:58:52;;;;;;;;;;;19.90;57.70;;;;;;5063182;28;19924;-62
2023/12/14 08:01:18;;;;;;;;;;;19.90;57.70;;;;;;5060504;28;19956;-62
2023/12/14 08:03:43;;;;;;;;;;;19.90;57.90;;;;;;5057618;28;20522;-63
2023/12/14 08:06:09;;;;;;;;;;;19.90;57.90;;;;;;5047790;28;20398;-62
2023/12/14 08:08:35;;;;;;;;;;;19.90;57.90;;;;;;5058270;28;19932;-62
2023/12/14 08:11:01;;;;;;;;;;;19.90;58.00;;;;;;5055186;28;20482;-61
2023/12/14 08:13:26;;;;;;;;;;;20.00;58.00;;;;;;5072230;28;20011;-61
2023/12/14 08:15:52;;;;;;;;;;;20.00;58.10;;;;;;5055389;28;19931;-62
2023/12/14 08:18:17;;;;;;;;;;;20.00;58.10;;;;;;5073309;28;19931;-62
2023/12/14 08:20:43;;;;;;;;;;;20.00;58.20;;;;;;5072465;28;20330;-61
2023/12/14 08:23:09;;;;;;;;;;;20.00;58.20;;;;;;5072929;28;20019;-61
2023/12/14 08:25:34;;;;;;;;;;;20.00;58.20;;;;;;5072914;28;19920;-61
2023/12/14 08:28:00;;;;;;;;;;;20.00;58.20;;;;;;5052844;28;19933;-62
2023/12/14 08:30:25;;;;;;;;;;;20.00;58.30;;;;;;5044102;28;19932;-63
2023/12/14 08:32:51;;;;;;;;;;;20.00;58.30;;;;;;5039898;28;19956;-62
2023/12/14 08:35:16;;;;;;;;;;;20.00;58.30;;;;;;5068282;28;19925;-63
2023/12/14 08:37:43;;;;;;;;;;;20.10;58.20;;;;;;5057338;28;19967;-62
2023/12/14 08:40:09;;;;;;;;;;;20.10;58.10;;;;;;5062707;28;19924;-62
2023/12/14 08:42:35;;;;;;;;;;;20.10;58.00;;;;;;5060338;28;20016;-62
2023/12/14 08:45:00;;;;;;;;;;;20.00;57.90;;;;;;5060479;28;19990;-63
2023/12/14 08:47:26;;;;;;;;;;;20.00;57.80;;;;;;5061298;28;19924;-64
2023/12/14 08:49:51;;;;;;;;;;;20.00;57.80;;;;;;5044616;28;20015;-63
2023/12/14 08:52:18;;;;;;;;;;;20.00;57.70;;;;;;5045300;28;19967;-63
2023/12/14 08:54:44;;;;;;;;;;;20.00;57.60;;;;;;5069741;28;19924;-63
2023/12/14 08:57:10;;;;;;;;;;;20.00;57.60;;;;;;5054786;28;19925;-64
2023/12/14 08:59:36;;;;;;;;;;;20.00;57.60;;;;;;5054954;28;19964;-63
2023/12/14 09:02:01;;;;;;;;;;;20.00;57.60;;;;;;5072228;28;19967;-63
2023/12/14 09:04:27;;;;;;;;;;;20.00;57.60;;;;;;5055331;28;20030;-63
2023/12/14 09:06:53;;;;;;;;;;;20.00;58.30;;;;;;5072365;28;20330;-63
2023/12/14 09:09:18;;;;;;;;;;;20.00;57.60;;;;;;5072119;28;19946;-63
2023/12/14 09:11:44;;;;;;;;;;;20.00;57.50;;;;;;5055057;28;19924;-63
2023/12/14 09:14:10;;;;;;;;;;;20.00;57.60;;;;;;5056517;28;19925;-63
2023/12/14 09:16:35;;;;;;;;;;;20.00;57.50;;;;;;5058115;28;20384;-63
2023/12/14 09:19:01;;;;;;;;;;;20.00;57.50;;;;;;5055116;28;19982;-62
2023/12/14 09:21:26;;;;;;;;;;;20.00;57.50;;;;;;5067191;28;19925;-66
2023/12/14 09:23:53;;;;;;;;;;;20.00;57.60;;;;;;5051802;28;19974;-62
2023/12/14 09:26:19;;;;;;;;;;;20.00;57.70;;;;;;5076723;28;19979;-63
2023/12/14 09:28:44;;;;;;;;;;;20.00;58.60;;;;;;5076060;28;19928;-63
2023/12/14 09:31:09;;;;;;;;;;;20.00;58.00;;;;;;5066164;28;19924;-62
2023/12/14 09:33:35;;;;;;;;;;;20.00;58.00;;;;;;5056538;28;20347;-62
2023/12/14 09:36:01;;;;;;;;;;;20.00;58.30;;;;;;5066680;28;20011;-63
2023/12/14 09:38:26;;;;;;;;;;;20.00;58.40;;;;;;5075943;28;19925;-60
2023/12/14 09:40:52;;;;;;;;;;;20.10;58.50;;;;;;5076130;28;20018;-62
2023/12/14 09:43:17;;;;;;;;;;;20.10;58.60;;;;;;5069049;28;19947;-62
2023/12/14 09:45:44;;;;;;;;;;;20.10;58.70;;;;;;5050243;28;19932;-62
2023/12/14 09:48:10;;;;;;;;;;;20.10;58.70;;;;;;5058263;28;19924;-61
2023/12/14 09:50:36;;;;;;;;;;;20.10;58.80;;;;;;5058471;28;20007;-62
2023/12/14 09:53:01;;;;;;;;;;;20.10;58.80;;;;;;5057810;28;19994;-63
2023/12/14 09:55:27;;;;;;;;;;;20.10;58.80;;;;;;5063799;28;20433;-61
2023/12/14 09:57:52;;;;;;;;;;;20.10;59.60;;;;;;5055013;28;19925;-62
2023/12/14 10:00:37;;;;;;;;;;;20.10;58.80;;;;;;5038250;28;20369;-62
2023/12/14 10:03:19;;;;;;;;;;;20.10;58.90;;;;;;5047827;28;19929;-63
2023/12/14 10:05:45;;;;;;;;;;;20.10;58.60;;;;;;5057342;28;20371;-62
2023/12/14 10:08:11;;;;;;;;;;;20.10;58.80;;;;;;5075687;28;19935;-62
2023/12/14 10:10:36;;;;;;;;;;;20.10;59.00;;;;;;5057770;28;19920;-63
2023/12/14 10:13:02;;;;;;;;;;;20.20;59.10;;;;;;5075055;28;19924;-61
2023/12/14 10:15:29;;;;;;;;;;;20.20;59.10;;;;;;5076056;28;19928;-62
2023/12/14 10:17:55;;;;;;;;;;;20.10;59.00;;;;;;5075344;28;20407;-63
2023/12/14 10:20:23;;;;;;;;;;;20.10;58.80;;;;;;5055450;28;20402;-63
2023/12/14 10:22:49;;;;;;;;;;;20.10;58.80;;;;;;5037637;28;19925;-62
2023/12/14 10:25:15;;;;;;;;;;;20.10;58.70;;;;;;5055001;28;19931;-61
2023/12/14 10:27:40;;;;;;;;;;;20.10;58.30;;;;;;5036976;28;20296;-62
2023/12/14 10:30:07;;;;;;;;;;;20.10;58.50;;;;;;5039790;28;19979;-62
2023/12/14 10:32:32;;;;;;;;;;;20.10;58.70;;;;;;5075629;28;19928;-62
2023/12/14 10:34:58;;;;;;;;;;;20.10;58.70;;;;;;5074441;28;19932;-62
2023/12/14 10:37:23;;;;;;;;;;;20.00;58.70;;;;;;5075138;28;20014;-62
2023/12/14 10:39:49;;;;;;;;;;;20.00;58.70;;;;;;5037503;28;19925;-63
2023/12/14 10:42:14;;;;;;;;;;;20.00;58.70;;;;;;5038310;28;20360;-62
2023/12/14 10:44:40;;;;;;;;;;;20.00;58.70;;;;;;5045973;28;19986;-61
2023/12/14 10:47:05;;;;;;;;;;;20.00;58.70;;;;;;5062054;28;19931;-61
2023/12/14 10:49:31;;;;;;;;;;;20.00;58.90;;;;;;5047737;28;19928;-61
2023/12/14 10:51:57;;;;;;;;;;;20.00;58.90;;;;;;5053798;28;20023;-61
2023/12/14 10:54:23;;;;;;;;;;;20.00;58.90;;;;;;5074373;28;20779;-61
2023/12/14 10:56:48;;;;;;;;;;;20.00;58.90;;;;;;5029615;28;19999;-62
2023/12/14 10:59:17;;;;;;;;;;;20.00;58.90;;;;;;5036618;28;19932;-62
2023/12/14 11:01:42;;;;;;;;;;;20.00;58.80;;;;;;5035890;28;19968;-62
2023/12/14 11:04:13;;;;;;;;;;;20.00;58.70;;;;;;5054099;28;19967;-62
2023/12/14 11:06:38;;;;;;;;;;;20.00;58.70;;;;;;5035934;28;20011;-62
2023/12/14 11:09:08;;;;;;;;;;;20.00;58.60;;;;;;5035386;28;20020;-63
2023/12/14 11:11:46;;;;;;;;;;;20.00;58.60;;;;;;5054876;28;20284;-62
2023/12/14 11:14:12;;;;;;;;;;;20.00;58.60;;;;;;5020743;28;20354;-62
2023/12/14 11:16:44;;;;;;;;;;;20.00;58.70;;;;;;5036219;28;19925;-63
2023/12/14 11:19:22;;;;;;;;;;;20.00;58.70;;;;;;5036543;28;19925;-60
2023/12/14 11:21:55;;;;;;;;;;;20.00;58.60;;;;;;5061801;28;20660;-60
2023/12/14 11:24:21;;;;;;;;;;;20.00;58.70;;;;;;5055559;28;19921;-63
2023/12/14 11:26:49;;;;;;;;;;;20.00;58.80;;;;;;5056427;28;19925;-61
2023/12/14 11:29:14;;;;;;;;;;;20.00;58.90;;;;;;5054664;28;19932;-61
2023/12/14 11:31:40;;;;;;;;;;;20.00;58.70;;;;;;5055073;28;19932;-62
2023/12/14 11:34:07;;;;;;;;;;;20.00;58.70;;;;;;5055472;28;19925;-66
2023/12/14 11:36:32;;;;;;;;;;;20.00;58.90;;;;;;5054946;28;20035;-63
2023/12/14 11:38:58;;;;;;;;;;;20.00;58.70;;;;;;5055247;28;20007;-63
2023/12/14 11:41:25;;;;;;;;;;;20.00;58.50;;;;;;5055552;28;19928;-63
2023/12/14 11:43:50;;;;;;;;;;;20.00;58.60;;;;;;5054594;28;20548;-63
2023/12/14 11:46:16;;;;;;;;;;;20.00;58.50;;;;;;5055733;28;19931;-63
2023/12/14 11:48:43;;;;;;;;;;;20.00;58.50;;;;;;5056575;28;19924;-63
2023/12/14 11:51:09;;;;;;;;;;;20.00;58.50;;;;;;5073042;28;19932;-63
2023/12/14 11:53:38;;;;;;;;;;;20.00;58.50;;;;;;5039884;28;19991;-63
2023/12/14 11:56:04;;;;;;;;;;;20.00;58.50;;;;;;5055851;28;19925;-63
2023/12/14 11:58:31;;;;;;;;;;;20.00;58.40;;;;;;5055443;28;19931;-63
2023/12/14 12:00:56;;;;;;;;;;;20.00;58.40;;;;;;5072871;28;20027;-63
2023/12/14 12:03:22;;;;;;;;;;;20.00;58.40;;;;;;5039815;28;20011;-63
2023/12/14 12:05:48;;;;;;;;;;;20.00;58.40;;;;;;5072091;28;20292;-63
2023/12/14 12:08:14;;;;;;;;;;;19.90;58.30;;;;;;5052662;28;19921;-63
2023/12/14 12:10:39;;;;;;;;;;;19.90;58.30;;;;;;5055632;28;19985;-63
2023/12/14 12:13:07;;;;;;;;;;;19.90;58.30;;;;;;5054927;28;20065;-63
2023/12/14 12:15:35;;;;;;;;;;;19.90;58.30;;;;;;5055540;28;20292;-63
2023/12/14 12:18:10;;;;;;;;;;;19.90;58.30;;;;;;5055249;28;19967;-64
2023/12/14 12:20:36;;;;;;;;;;;19.90;58.30;;;;;;5054799;28;19964;-64
2023/12/14 12:23:02;;;;;;;;;;;19.90;58.30;;;;;;5052118;28;19983;-64
2023/12/14 12:25:27;;;;;;;;;;;19.90;58.30;;;;;;5035112;28;20300;-64
2023/12/14 12:27:54;;;;;;;;;;;19.90;58.20;;;;;;5034992;28;19925;-64
2023/12/14 12:30:19;;;;;;;;;;;19.90;58.20;;;;;;5053515;28;19925;-64
2023/12/14 12:32:45;;;;;;;;;;;19.90;58.20;;;;;;5035058;28;19924;-64
2023/12/14 12:35:10;;;;;;;;;;;19.90;58.90;;;;;;5035208;28;20396;-63
2023/12/14 12:37:36;;;;;;;;;;;19.90;58.20;;;;;;5035807;28;19932;-63
2023/12/14 12:40:02;;;;;;;;;;;19.90;58.10;;;;;;5034149;28;19929;-64
2023/12/14 12:42:29;;;;;;;;;;;19.90;58.10;;;;;;5035776;28;19924;-64
2023/12/14 12:44:54;;;;;;;;;;;19.90;58.10;;;;;;5053099;28;20002;-64
2023/12/14 12:47:20;;;;;;;;;;;20.00;58.20;;;;;;5034916;28;19965;-64
2023/12/14 12:49:45;;;;;;;;;;;20.00;58.10;;;;;;5035378;28;19932;-64
2023/12/14 12:52:11;;;;;;;;;;;19.90;58.00;;;;;;5035313;28;19924;-64
2023/12/14 12:54:36;;;;;;;;;;;19.90;58.00;;;;;;5034762;28;20023;-64
2023/12/14 12:57:02;;;;;;;;;;;20.00;58.10;;;;;;5035216;28;19927;-64
2023/12/14 12:59:27;;;;;;;;;;;19.90;58.00;;;;;;5053267;28;20380;-64
2023/12/14 13:01:53;;;;;;;;;;;20.00;58.00;;;;;;5036874;28;19924;-64
2023/12/14 13:04:19;;;;;;;;;;;20.00;58.00;;;;;;5055119;28;20011;-64
2023/12/14 13:06:45;;;;;;;;;;;20.00;58.00;;;;;;5073037;28;20372;-64
2023/12/14 13:09:11;;;;;;;;;;;20.00;58.00;;;;;;5054004;28;19931;-64
2023/12/14 13:11:37;;;;;;;;;;;20.00;58.00;;;;;;5054955;28;19924;-64
2023/12/14 13:14:07;;;;;;;;;;;20.00;58.00;;;;;;5053910;28;19973;-64
2023/12/14 13:16:34;;;;;;;;;;;20.00;58.00;;;;;;5072305;28;19927;-64
2023/12/14 13:18:59;;;;;;;;;;;20.00;57.90;;;;;;5054686;28;19925;-64
2023/12/14 13:21:25;;;;;;;;;;;20.00;57.90;;;;;;5035049;28;19924;-64
2023/12/14 13:23:50;;;;;;;;;;;20.00;57.90;;;;;;5051929;28;20020;-64
2023/12/14 13:26:16;;;;;;;;;;;20.00;57.80;;;;;;5034421;28;19964;-64
2023/12/14 13:28:42;;;;;;;;;;;20.00;57.80;;;;;;5034991;28;19932;-64
2023/12/14 13:31:07;;;;;;;;;;;20.00;57.80;;;;;;5033950;28;20062;-64
2023/12/14 13:33:33;;;;;;;;;;;20.00;57.80;;;;;;5034890;28;19926;-64
2023/12/14 13:35:58;;;;;;;;;;;20.00;57.80;;;;;;5033906;28;19925;-64
2023/12/14 13:38:24;;;;;;;;;;;20.00;57.70;;;;;;5035463;28;19932;-64
2023/12/14 13:40:49;;;;;;;;;;;20.00;57.70;;;;;;5034706;28;19974;-64
2023/12/14 13:43:15;;;;;;;;;;;20.10;57.80;;;;;;5034047;28;19928;-64
2023/12/14 13:45:41;;;;;;;;;;;20.00;57.80;;;;;;5034891;28;19925;-64
2023/12/14 13:48:07;;;;;;;;;;;20.10;57.80;;;;;;5064936;28;20027;-64
2023/12/14 13:50:33;;;;;;;;;;;20.00;57.70;;;;;;5053863;28;20011;-64
2023/12/14 13:52:58;;;;;;;;;;;20.10;57.70;;;;;;5054177;28;19924;-64
2023/12/14 13:55:24;;;;;;;;;;;20.00;57.70;;;;;;5054774;28;20376;-64
2023/12/14 13:57:49;;;;;;;;;;;20.00;57.60;;;;;;5053829;28;19986;-64
2023/12/14 14:00:16;;;;;;;;;;;20.00;57.60;;;;;;5056235;28;19924;-65
2023/12/14 14:02:41;;;;;;;;;;;20.00;57.60;;;;;;5076078;28;20026;-65
2023/12/14 14:05:07;;;;;;;;;;;20.00;57.60;;;;;;5057541;28;20032;-64
2023/12/14 14:07:32;;;;;;;;;;;20.00;57.60;;;;;;5058313;28;19920;-65